createdAt,value
2023-02-23T00:02:24.922Z,8.20
2023-02-23T00:04:53.579Z,8.20
2023-02-23T00:07:22.408Z,8.20
2023-02-23T00:09:52.969Z,8.10
2023-02-23T00:12:24.102Z,8.20
2023-02-23T00:14:53.007Z,8.20
2023-02-23T00:17:24.727Z,8.10
2023-02-23T00:19:55.402Z,8.10
2023-02-23T00:22:26.250Z,8.10
2023-02-23T00:24:54.967Z,8.10
2023-02-23T00:27:23.632Z,8.20
2023-02-23T00:29:52.487Z,8.10
2023-02-23T00:32:22.952Z,8.10
2023-02-23T00:34:51.959Z,8.10
2023-02-23T00:37:22.732Z,8.10
2023-02-23T00:39:52.112Z,8.10
2023-02-23T00:42:20.835Z,8.10
2023-02-23T00:44:49.788Z,8.10
2023-02-23T00:47:18.502Z,8.10
2023-02-23T00:49:48.587Z,8.10
2023-02-23T00:52:17.264Z,8.10
2023-02-23T00:54:46.235Z,8.00
2023-02-23T00:57:15.039Z,8.00
2023-02-23T00:59:43.741Z,8.00
2023-02-23T01:02:12.478Z,8.00
2023-02-23T01:04:41.205Z,8.10
2023-02-23T01:07:13.053Z,8.00
2023-02-23T01:09:42.609Z,8.10
2023-02-23T01:12:11.326Z,8.10
2023-02-23T01:14:40.535Z,8.00
2023-02-23T01:17:09.232Z,8.00
2023-02-23T01:19:38.084Z,8.00
2023-02-23T01:22:06.948Z,8.10
2023-02-23T01:24:38.750Z,8.00
2023-02-23T01:27:07.471Z,8.10
2023-02-23T01:29:36.141Z,8.00
2023-02-23T01:32:07.482Z,8.00
2023-02-23T01:34:36.318Z,8.00
2023-02-23T01:37:05.181Z,8.00
2023-02-23T01:39:34.411Z,8.00
2023-02-23T01:42:05.376Z,8.10
2023-02-23T01:45:16.662Z,8.10
2023-02-23T01:47:45.413Z,8.10
2023-02-23T01:50:16.451Z,8.10
2023-02-23T01:52:46.073Z,8.10
2023-02-23T01:55:23.101Z,8.10
2023-02-23T01:57:56.962Z,8.00
2023-02-23T02:00:27.422Z,8.10
2023-02-23T02:02:58.250Z,8.00
2023-02-23T02:05:28.711Z,8.00
2023-02-23T02:07:59.612Z,8.00
2023-02-23T02:10:40.996Z,8.00
2023-02-23T02:13:14.905Z,8.00
2023-02-23T02:15:56.596Z,8.00
2023-02-23T02:18:32.419Z,8.00
2023-02-23T02:21:16.503Z,8.00
2023-02-23T02:24:22.121Z,8.00
2023-02-23T02:27:02.662Z,8.00
2023-02-23T02:30:23.148Z,8.00
2023-02-23T02:33:23.284Z,8.00
2023-02-23T02:36:18.471Z,8.00
2023-02-23T02:38:56.687Z,8.00
2023-02-23T02:41:37.031Z,8.00
2023-02-23T02:44:15.575Z,8.00
2023-02-23T02:46:49.962Z,8.00
2023-02-23T02:49:27.718Z,7.90
2023-02-23T02:52:02.058Z,8.00
2023-02-23T02:54:35.242Z,7.90
2023-02-23T02:57:06.009Z,7.90
2023-02-23T03:00:02.219Z,7.90
2023-02-23T03:02:50.355Z,7.90
2023-02-23T03:05:38.682Z,7.90
2023-02-23T03:08:34.190Z,7.90
2023-02-23T03:11:24.388Z,7.90
2023-02-23T03:14:23.097Z,7.90
2023-02-23T03:17:18.233Z,7.90
2023-02-23T03:20:15.698Z,7.90
2023-02-23T03:23:12.512Z,7.90
2023-02-23T03:26:08.080Z,7.90
2023-02-23T03:29:01.354Z,7.90
2023-02-23T03:31:56.044Z,7.90
2023-02-23T03:34:47.610Z,7.90
2023-02-23T03:37:38.708Z,7.80
2023-02-23T03:40:30.512Z,7.90
2023-02-23T03:43:20.543Z,7.80
2023-02-23T03:46:08.925Z,7.90
2023-02-23T03:48:56.171Z,7.80
2023-02-23T03:51:44.881Z,7.80
2023-02-23T03:54:35.523Z,7.80
2023-02-23T03:57:26.518Z,7.80
2023-02-23T04:00:15.838Z,7.80
2023-02-23T04:03:08.812Z,7.80
2023-02-23T04:05:58.297Z,7.80
2023-02-23T04:08:50.074Z,7.80
2023-02-23T04:11:42.426Z,7.80
2023-02-23T04:14:17.444Z,7.70
2023-02-23T04:16:45.712Z,7.80
2023-02-23T04:19:15.808Z,7.70
2023-02-23T04:21:44.495Z,7.70
2023-02-23T04:24:13.355Z,7.70
2023-02-23T04:26:42.393Z,7.70
2023-02-23T04:29:12.319Z,7.70
2023-02-23T04:31:41.808Z,7.60
2023-02-23T04:34:10.515Z,7.60
2023-02-23T04:36:40.791Z,7.70
2023-02-23T04:39:09.392Z,7.60
2023-02-23T04:41:38.192Z,7.60
2023-02-23T04:44:07.077Z,7.60
2023-02-23T04:46:35.872Z,7.50
2023-02-23T04:49:04.574Z,7.50
2023-02-23T04:51:34.045Z,7.50
2023-02-23T04:54:06.042Z,7.50
2023-02-23T04:56:34.769Z,7.50
2023-02-23T04:59:03.411Z,7.50
2023-02-23T05:01:32.803Z,7.50
2023-02-23T05:04:01.442Z,7.50
2023-02-23T05:06:30.485Z,7.50
2023-02-23T05:08:59.301Z,7.50
2023-02-23T05:11:29.338Z,7.50
2023-02-23T05:13:57.990Z,7.40
2023-02-23T05:16:26.750Z,7.40
2023-02-23T05:18:55.539Z,7.40
2023-02-23T05:21:25.013Z,7.40
2023-02-23T05:24:32.994Z,7.40
2023-02-23T05:27:03.152Z,7.40
2023-02-23T05:29:31.898Z,7.40
2023-02-23T05:32:00.729Z,7.40
2023-02-23T05:34:29.758Z,7.40
2023-02-23T05:36:58.720Z,7.40
2023-02-23T05:39:29.032Z,7.40
2023-02-23T05:41:57.686Z,7.40
2023-02-23T05:44:27.933Z,7.40
2023-02-23T05:46:57.765Z,7.40
2023-02-23T05:49:26.330Z,7.40
2023-02-23T05:51:54.903Z,7.40
2023-02-23T05:54:23.589Z,7.40
2023-02-23T05:56:52.204Z,7.50
2023-02-23T05:59:20.962Z,7.40
2023-02-23T06:01:51.108Z,7.40
2023-02-23T06:04:19.998Z,7.40
2023-02-23T06:06:50.950Z,7.40
2023-02-23T06:09:19.734Z,7.40
2023-02-23T06:11:48.630Z,7.50
2023-02-23T06:14:17.453Z,7.40
2023-02-23T06:16:48.379Z,7.40
2023-02-23T06:19:18.824Z,7.40
2023-02-23T06:21:47.418Z,7.40
2023-02-23T06:24:16.073Z,7.40
2023-02-23T06:26:44.672Z,7.40
2023-02-23T06:29:13.652Z,7.40
2023-02-23T06:31:42.396Z,7.40
2023-02-23T06:34:12.470Z,7.40
2023-02-23T06:36:43.122Z,7.40
2023-02-23T06:39:12.913Z,7.40
2023-02-23T06:41:41.527Z,7.40
2023-02-23T06:44:10.187Z,7.40
2023-02-23T06:46:38.843Z,7.40
2023-02-23T06:49:07.839Z,7.40
2023-02-23T06:51:36.523Z,7.40
2023-02-23T06:54:06.772Z,7.40
2023-02-23T06:56:35.502Z,7.40
2023-02-23T06:59:04.302Z,7.40
2023-02-23T07:01:32.950Z,7.40
2023-02-23T07:04:01.661Z,7.40
2023-02-23T07:06:31.298Z,7.40
2023-02-23T07:08:59.966Z,7.40
2023-02-23T07:11:29.987Z,7.40
2023-02-23T07:13:59.400Z,7.40
2023-02-23T07:16:28.813Z,7.40
2023-02-23T07:18:57.507Z,7.30
2023-02-23T07:21:26.122Z,7.40
2023-02-23T07:23:54.808Z,7.40
2023-02-23T07:26:23.434Z,7.40
2023-02-23T07:28:54.236Z,7.40
2023-02-23T07:31:23.171Z,7.40
2023-02-23T07:33:53.006Z,7.30
2023-02-23T07:36:21.677Z,7.40
2023-02-23T07:38:50.662Z,7.40
2023-02-23T07:41:19.716Z,7.40
2023-02-23T07:43:48.633Z,7.40
2023-02-23T07:46:18.723Z,7.40
2023-02-23T07:48:47.363Z,7.40
2023-02-23T07:51:17.803Z,7.40
2023-02-23T07:53:46.682Z,7.40
2023-02-23T07:56:15.274Z,7.40
2023-02-23T07:58:45.576Z,7.50
2023-02-23T08:01:15.097Z,7.40
2023-02-23T08:03:49.635Z,7.50
2023-02-23T08:06:19.432Z,7.50
2023-02-23T08:08:48.160Z,7.50
2023-02-23T08:11:17.217Z,7.50
2023-02-23T08:13:46.039Z,7.50
2023-02-23T08:16:14.906Z,7.60
2023-02-23T08:18:44.952Z,7.60
2023-02-23T08:21:13.539Z,7.70
2023-02-23T08:23:42.695Z,7.70
2023-02-23T08:26:11.710Z,7.70
2023-02-23T08:28:41.871Z,7.70
2023-02-23T08:31:11.669Z,7.70
2023-02-23T08:33:41.228Z,7.80
2023-02-23T08:36:11.336Z,7.90
2023-02-23T08:38:39.926Z,7.90
2023-02-23T08:41:08.565Z,8.00
2023-02-23T08:43:39.334Z,8.00
2023-02-23T08:46:08.040Z,8.00
2023-02-23T08:48:39.128Z,8.00
2023-02-23T08:51:08.122Z,8.00
2023-02-23T08:53:38.145Z,8.00
2023-02-23T08:56:08.548Z,8.00
2023-02-23T08:58:37.693Z,8.00
2023-02-23T09:01:06.939Z,8.00
2023-02-23T09:03:38.283Z,8.00
2023-02-23T09:06:10.508Z,8.10
2023-02-23T09:08:40.554Z,8.10
2023-02-23T09:11:09.146Z,8.10
2023-02-23T09:13:37.791Z,8.10
2023-02-23T09:16:07.778Z,8.10
2023-02-23T09:18:36.664Z,8.20
2023-02-23T09:21:08.519Z,8.30
2023-02-23T09:23:37.644Z,8.30
2023-02-23T09:26:09.634Z,8.30
2023-02-23T09:28:40.698Z,8.30
2023-02-23T09:31:11.603Z,8.30
2023-02-23T09:33:40.678Z,8.30
2023-02-23T09:36:12.816Z,8.40
2023-02-23T09:38:41.452Z,8.40
2023-02-23T09:41:39.272Z,8.40
2023-02-23T09:44:19.521Z,8.40
2023-02-23T09:46:55.360Z,8.50
2023-02-23T09:49:29.257Z,8.50
2023-02-23T09:52:01.154Z,8.60
2023-02-23T09:54:33.549Z,8.70
2023-02-23T09:57:06.337Z,8.70
2023-02-23T09:59:37.071Z,8.70
2023-02-23T10:02:19.593Z,8.70
2023-02-23T10:04:51.172Z,8.70
2023-02-23T10:07:27.543Z,8.70
2023-02-23T10:10:08.948Z,8.80
2023-02-23T10:12:50.764Z,8.80
2023-02-23T10:15:28.790Z,8.70
2023-02-23T10:18:05.105Z,8.70
2023-02-23T10:20:42.025Z,8.70
2023-02-23T10:23:16.277Z,8.70
2023-02-23T10:25:48.502Z,8.80
2023-02-23T10:28:20.270Z,8.90
2023-02-23T10:30:50.837Z,8.90
2023-02-23T10:33:25.577Z,8.90
2023-02-23T10:36:12.396Z,8.90
2023-02-23T10:38:42.180Z,8.90
2023-02-23T10:41:14.636Z,8.90
2023-02-23T10:43:44.915Z,8.90
2023-02-23T10:46:22.435Z,8.90
2023-02-23T10:48:55.718Z,8.80
2023-02-23T10:51:29.534Z,8.80
2023-02-23T10:54:05.074Z,8.80
2023-02-23T10:56:45.688Z,8.80
2023-02-23T10:59:20.918Z,8.80
2023-02-23T11:02:01.304Z,8.80
2023-02-23T11:04:32.345Z,8.80
2023-02-23T11:07:10.988Z,8.80
2023-02-23T11:09:47.202Z,8.80
2023-02-23T11:12:22.979Z,8.80
2023-02-23T11:14:54.495Z,8.80
2023-02-23T11:17:30.269Z,8.80
2023-02-23T11:20:04.982Z,8.80
2023-02-23T11:22:36.041Z,8.80
2023-02-23T11:25:16.730Z,8.70
2023-02-23T11:27:51.416Z,8.70
2023-02-23T11:30:24.566Z,8.70
2023-02-23T11:32:55.770Z,8.70
2023-02-23T11:35:31.485Z,8.70
2023-02-23T11:38:00.164Z,8.70
2023-02-23T11:40:31.940Z,8.70
2023-02-23T11:43:10.158Z,8.70
2023-02-23T11:45:48.481Z,8.70
2023-02-23T11:48:23.515Z,8.70
2023-02-23T11:50:53.026Z,8.60
2023-02-23T11:53:29.693Z,8.60
2023-02-23T11:56:08.053Z,8.50
2023-02-23T11:58:40.699Z,8.50
2023-02-23T12:01:13.811Z,8.50
2023-02-23T12:03:48.021Z,8.50
2023-02-23T12:06:30.063Z,8.40
2023-02-23T12:09:05.552Z,8.30
2023-02-23T12:11:38.589Z,8.30
2023-02-23T12:14:15.594Z,8.30
2023-02-23T12:16:50.289Z,8.30
2023-02-23T12:19:28.883Z,8.30
2023-02-23T12:22:04.738Z,8.40
2023-02-23T12:24:42.101Z,8.30
2023-02-23T12:27:15.233Z,8.40
2023-02-23T12:30:01.084Z,8.40
2023-02-23T12:32:43.545Z,8.40
2023-02-23T12:35:16.079Z,8.40
2023-02-23T12:37:48.822Z,8.40
2023-02-23T12:40:22.683Z,8.40
2023-02-23T12:43:00.213Z,8.40
2023-02-23T12:45:37.082Z,8.50
2023-02-23T12:48:16.226Z,8.40
2023-02-23T12:50:52.945Z,8.40
2023-02-23T12:53:26.359Z,8.40
2023-02-23T12:56:13.266Z,8.30
2023-02-23T12:58:51.321Z,8.30
2023-02-23T13:01:26.013Z,8.30
2023-02-23T13:04:09.549Z,8.30
2023-02-23T13:06:48.867Z,8.30
2023-02-23T13:09:33.827Z,8.30
2023-02-23T13:12:22.045Z,8.40
2023-02-23T13:14:57.307Z,8.40
2023-02-23T13:17:38.187Z,8.40
2023-02-23T13:20:18.667Z,8.50
2023-02-23T13:22:52.488Z,8.60
2023-02-23T13:25:36.936Z,8.60
2023-02-23T13:28:07.899Z,8.60
2023-02-23T13:30:37.040Z,8.70
2023-02-23T13:33:20.616Z,8.70
2023-02-23T13:35:51.086Z,8.70
2023-02-23T13:38:24.705Z,8.70
2023-02-23T13:41:00.115Z,8.70
2023-02-23T13:43:35.403Z,8.70
2023-02-23T13:46:17.421Z,8.70
2023-02-23T13:48:58.004Z,8.60
2023-02-23T13:51:41.794Z,8.70
2023-02-23T13:54:25.422Z,8.70
2023-02-23T13:56:57.601Z,8.80
2023-02-23T13:59:29.717Z,8.90
2023-02-23T14:02:03.221Z,8.90
2023-02-23T14:04:37.526Z,8.80
2023-02-23T14:07:22.499Z,8.80
2023-02-23T14:09:56.911Z,8.90
2023-02-23T14:12:27.838Z,8.80
2023-02-23T14:14:56.487Z,8.80
2023-02-23T14:17:42.617Z,8.70
2023-02-23T14:20:40.140Z,8.70
2023-02-23T14:23:51.696Z,8.70
2023-02-23T14:26:39.326Z,8.80
2023-02-23T14:29:27.598Z,8.80
2023-02-23T14:31:59.179Z,8.80
2023-02-23T14:34:53.394Z,8.80
2023-02-23T14:37:26.859Z,8.80
2023-02-23T14:40:01.398Z,8.80
2023-02-23T14:42:30.890Z,8.70
2023-02-23T14:45:06.162Z,8.80
2023-02-23T14:47:46.896Z,8.80
2023-02-23T14:50:24.794Z,8.80
2023-02-23T14:52:55.599Z,8.80
2023-02-23T14:55:29.172Z,8.80
2023-02-23T14:57:59.551Z,8.80
2023-02-23T15:00:32.521Z,8.80
2023-02-23T15:03:03.252Z,8.80
2023-02-23T15:05:34.800Z,8.80
2023-02-23T15:08:07.215Z,8.80
2023-02-23T15:10:39.569Z,8.80
2023-02-23T15:13:15.433Z,8.80
2023-02-23T15:15:46.524Z,8.80
2023-02-23T15:18:23.106Z,8.80
2023-02-23T15:20:52.023Z,8.80
2023-02-23T15:23:21.793Z,8.70
2023-02-23T15:25:52.945Z,8.70
2023-02-23T15:28:25.232Z,8.70
2023-02-23T15:30:55.977Z,8.70
2023-02-23T15:33:28.685Z,8.70
2023-02-23T15:36:08.096Z,8.70
2023-02-23T15:38:44.162Z,8.70
2023-02-23T15:41:25.312Z,8.70
2023-02-23T15:43:54.401Z,8.70
2023-02-23T15:46:26.671Z,8.70
2023-02-23T15:49:00.788Z,8.70
2023-02-23T15:51:35.743Z,8.70
2023-02-23T15:54:13.705Z,8.60
2023-02-23T15:56:46.943Z,8.60
2023-02-23T15:59:23.958Z,8.60
2023-02-23T16:01:55.434Z,8.60
2023-02-23T16:04:29.199Z,8.60
2023-02-23T16:07:11.767Z,8.60
2023-02-23T16:09:47.829Z,8.50
2023-02-23T16:12:20.892Z,8.50
2023-02-23T16:14:54.100Z,8.50
2023-02-23T16:17:29.145Z,8.50
2023-02-23T16:20:08.037Z,8.40
2023-02-23T16:22:39.987Z,8.20
2023-02-23T16:25:13.578Z,8.00
2023-02-23T16:27:44.621Z,7.80
2023-02-23T16:30:23.357Z,7.70
2023-02-23T16:33:06.576Z,7.60
2023-02-23T16:35:39.594Z,7.50
2023-02-23T16:38:14.734Z,7.40
2023-02-23T16:40:45.142Z,7.30
2023-02-23T16:43:15.196Z,7.20
2023-02-23T16:45:44.771Z,7.20
2023-02-23T16:48:15.328Z,7.10
2023-02-23T16:50:45.905Z,7.10
2023-02-23T16:53:15.362Z,7.10
2023-02-23T16:55:49.806Z,7.10
2023-02-23T16:58:23.195Z,7.10
2023-02-23T17:00:52.268Z,7.10
2023-02-23T17:03:24.304Z,7.10
2023-02-23T17:05:53.660Z,7.10
2023-02-23T17:08:22.293Z,7.00
2023-02-23T17:10:53.523Z,7.00
2023-02-23T17:13:25.772Z,7.00
2023-02-23T17:15:56.478Z,7.00
2023-02-23T17:18:27.399Z,7.10
2023-02-23T17:20:57.582Z,7.10
2023-02-23T17:23:30.125Z,7.10
2023-02-23T17:25:59.011Z,7.10
2023-02-23T17:28:30.091Z,7.10
2023-02-23T17:30:58.789Z,7.00
2023-02-23T17:33:28.078Z,7.00
2023-02-23T17:35:56.790Z,6.90
2023-02-23T17:38:33.829Z,6.90
2023-02-23T17:41:03.755Z,6.80
2023-02-23T17:43:33.751Z,6.70
2023-02-23T17:46:02.941Z,6.70
2023-02-23T17:48:34.674Z,6.70
2023-02-23T17:51:08.677Z,6.60
2023-02-23T17:53:37.876Z,6.50
2023-02-23T17:56:07.201Z,6.40
2023-02-23T17:58:38.010Z,6.30
2023-02-23T18:01:08.637Z,6.30
2023-02-23T18:03:38.663Z,6.30
2023-02-23T18:06:08.883Z,6.30
2023-02-23T18:08:38.685Z,6.20
2023-02-23T18:11:07.674Z,6.30
2023-02-23T18:13:38.138Z,6.20
2023-02-23T18:16:09.960Z,6.20
2023-02-23T18:18:43.664Z,6.20
2023-02-23T18:21:14.148Z,6.20
2023-02-23T18:23:43.336Z,6.20
2023-02-23T18:26:14.687Z,6.20
2023-02-23T18:28:45.914Z,6.10
2023-02-23T18:31:16.873Z,6.10
2023-02-23T18:33:46.336Z,6.10
2023-02-23T18:36:19.932Z,6.10
2023-02-23T18:38:49.675Z,6.10
2023-02-23T18:41:19.540Z,6.10
2023-02-23T18:43:50.608Z,6.10
2023-02-23T18:46:19.752Z,6.10
2023-02-23T18:48:50.601Z,6.00
2023-02-23T18:51:20.081Z,5.90
2023-02-23T18:53:49.741Z,5.90
2023-02-23T18:56:23.146Z,5.90
2023-02-23T18:58:55.338Z,5.80
2023-02-23T19:01:26.757Z,5.80
2023-02-23T19:03:56.563Z,5.80
2023-02-23T19:06:25.940Z,5.70
2023-02-23T19:08:57.378Z,5.70
2023-02-23T19:11:28.198Z,5.70
2023-02-23T19:13:59.865Z,5.60
2023-02-23T19:16:31.210Z,5.50
2023-02-23T19:19:00.769Z,5.50
2023-02-23T19:21:29.498Z,5.40
2023-02-23T19:23:58.371Z,5.30
2023-02-23T19:26:29.452Z,5.10
2023-02-23T19:28:59.708Z,5.10
2023-02-23T19:31:28.847Z,5.00
2023-02-23T19:33:59.750Z,4.90
2023-02-23T19:36:31.732Z,4.90
2023-02-23T19:39:11.091Z,4.80
2023-02-23T19:41:40.983Z,4.80
2023-02-23T19:44:11.492Z,4.70
2023-02-23T19:46:42.968Z,4.70
2023-02-23T19:49:12.081Z,4.70
2023-02-23T19:51:40.815Z,4.70
2023-02-23T19:54:09.536Z,4.60
2023-02-23T19:56:38.746Z,4.50
2023-02-23T19:59:07.512Z,4.50
2023-02-23T20:01:37.937Z,4.50
2023-02-23T20:04:09.125Z,4.40
2023-02-23T20:06:44.701Z,4.40
2023-02-23T20:09:13.773Z,4.30
2023-02-23T20:11:43.099Z,4.30
2023-02-23T20:14:12.525Z,4.20
2023-02-23T20:16:42.624Z,4.20
2023-02-23T20:19:11.804Z,4.10
2023-02-23T20:21:42.216Z,4.10
2023-02-23T20:24:12.794Z,4.10
2023-02-23T20:26:41.600Z,4.00
2023-02-23T20:29:13.633Z,4.00
2023-02-23T20:31:50.610Z,4.00
2023-02-23T20:34:24.102Z,3.90
2023-02-23T20:36:53.792Z,3.90
2023-02-23T20:39:26.926Z,3.90
2023-02-23T20:41:58.107Z,3.80
2023-02-23T20:44:28.143Z,3.80
2023-02-23T20:46:58.572Z,3.80
2023-02-23T20:49:27.639Z,3.70
2023-02-23T20:52:04.399Z,3.70
2023-02-23T20:54:33.463Z,3.70
2023-02-23T20:57:07.655Z,3.70
2023-02-23T20:59:37.458Z,3.60
2023-02-23T21:02:11.082Z,3.60
2023-02-23T21:04:39.836Z,3.50
2023-02-23T21:07:09.160Z,3.50
2023-02-23T21:09:40.368Z,3.50
2023-02-23T21:12:09.739Z,3.40
2023-02-23T21:14:38.395Z,3.40
2023-02-23T21:17:09.658Z,3.30
2023-02-23T21:19:39.136Z,3.30
2023-02-23T21:22:09.117Z,3.30
2023-02-23T21:24:41.432Z,3.10
2023-02-23T21:27:12.813Z,3.10
2023-02-23T21:29:42.030Z,3.10
2023-02-23T21:32:14.913Z,3.00
2023-02-23T21:34:44.063Z,3.00
2023-02-23T21:37:13.954Z,3.00
2023-02-23T21:39:43.014Z,3.00
2023-02-23T21:42:11.734Z,3.00
2023-02-23T21:44:44.533Z,3.00
2023-02-23T21:47:15.397Z,3.00
2023-02-23T21:49:49.649Z,3.00
2023-02-23T21:52:18.607Z,3.00
2023-02-23T21:54:58.721Z,2.90
2023-02-23T21:57:29.091Z,2.80
2023-02-23T21:59:57.764Z,2.70
2023-02-23T22:02:31.743Z,2.70
2023-02-23T22:05:00.483Z,2.80
2023-02-23T22:07:29.801Z,2.70
2023-02-23T22:09:58.780Z,2.60
2023-02-23T22:12:28.607Z,2.60
2023-02-23T22:14:57.253Z,2.60
2023-02-23T22:17:27.314Z,2.50
2023-02-23T22:19:56.388Z,2.40
2023-02-23T22:22:25.849Z,2.40
2023-02-23T22:24:54.525Z,2.40
2023-02-23T22:27:23.131Z,2.40
2023-02-23T22:29:51.875Z,2.50
2023-02-23T22:32:21.192Z,2.50
2023-02-23T22:34:51.538Z,2.50
2023-02-23T22:37:21.922Z,2.40
2023-02-23T22:39:52.217Z,2.40
2023-02-23T22:42:21.182Z,2.30
2023-02-23T22:44:49.927Z,2.30
2023-02-23T22:47:18.552Z,2.20
2023-02-23T22:49:48.016Z,2.20
2023-02-23T22:52:17.975Z,2.10
2023-02-23T22:54:48.123Z,2.10
2023-02-23T22:57:16.742Z,2.10
2023-02-23T22:59:54.840Z,2.10
2023-02-23T23:02:23.554Z,2.00
2023-02-23T23:04:54.266Z,2.00
2023-02-23T23:07:26.008Z,2.00
2023-02-23T23:09:54.995Z,1.90
2023-02-23T23:12:23.677Z,1.90
2023-02-23T23:14:52.483Z,1.90
2023-02-23T23:17:22.435Z,1.80
2023-02-23T23:19:51.326Z,1.80
2023-02-23T23:22:20.481Z,1.70
2023-02-23T23:24:51.027Z,1.70
2023-02-23T23:27:21.184Z,1.70
2023-02-23T23:29:50.058Z,1.60
2023-02-23T23:32:27.437Z,1.60
2023-02-23T23:34:58.553Z,1.60
2023-02-23T23:37:29.162Z,1.60
2023-02-23T23:40:00.313Z,1.70
2023-02-23T23:42:28.999Z,1.80
2023-02-23T23:44:57.636Z,1.80
2023-02-23T23:47:27.902Z,1.90
2023-02-23T23:49:56.887Z,1.90
2023-02-23T23:52:25.525Z,2.00
2023-02-23T23:54:54.141Z,2.10
2023-02-23T23:57:24.389Z,2.20
2023-02-23T23:59:53.013Z,2.10
